MMMX

Licenciado Benito Juarez International Airport

Mexico City, Mexico
TAF MMMX 221618Z 2218/2324 04010KT 6SM HZ SCT020 SCT080 BKN200 TX26/2221Z TN14/2312Z BECMG 2221/2223 5SM -RA BKN020 OVC080 PROB40 2223/2303 4SM TSRA BKN020CB FM231000 08004KT P6SM SCT020 SCT090 BKN220 BECMG 2319/2321 03012KT BKN090
Issued Valid From Valid To
Jul-22 @ 16:18 UTC
(4 hours ago)
Jul-22 @ 18:00 UTC
(2 hours ago)
Jul-24 @ 00:00 UTC
(-1 days ago)
Jul-22 @ 18:00 to Jul-22 @ 21:00
TAF MMMX 221618Z 2218/2324 04010KT 6SM HZ SCT020 SCT080 BKN200 TX26/2221Z TN14/2312Z
Wind Visibility Clouds Conditions
40° at 10 knots 6 miles
  • Scattered at 2,000' AGL
  • Scattered at 8,000' AGL
  • Broken at 20,000' AGL
  • Haze
Becoming Jul-22 @ 21:00 to Jul-23 @ 10:00
BECMG 2221/2223 5SM -RA BKN020 OVC080
Wind Visibility Clouds Conditions
40° at 10 knots 5 miles
  • Broken at 2,000' AGL
  • Overcast at 8,000' AGL
  • Light Rain
Probable  (Probability 40%) Jul-22 @ 23:00 to Jul-23 @ 03:00
PROB40 2223/2303 4SM TSRA BKN020CB
Visibility Clouds Conditions
4 miles
  • Broken at 2,000' AGL
  • Thunderstorm
  • Rain
From Jul-23 @ 10:00 to Jul-23 @ 19:00
FM231000 08004KT P6SM SCT020 SCT090 BKN220
Wind Visibility Clouds
80° at 4 knots Greater than 6 miles
  • Scattered at 2,000' AGL
  • Scattered at 9,000' AGL
  • Broken at 22,000' AGL
Becoming Jul-23 @ 19:00 to Jul-24 @ 00:00
BECMG 2319/2321 03012KT BKN090
Wind Visibility Clouds
30° at 12 knots Greater than 6 miles
  • Broken at 9,000' AGL
TAF MMMX 221618Z 2218/2324 04010KT 6SM HZ SCT020 SCT080 BKN200 TX26/2221Z TN14/2312Z BECMG 2221/2223 5SM -RA BKN020 OVC080 PROB40 2223/2303 4SM TSRA BKN020CB FM231000 08004KT P6SM SCT020 SCT090 BKN220 BECMG 2319/2321 03012KT BKN090
Issued Jul-22 @ 16:18 UTC
(4 hours ago)
Valid From Jul-22 @ 18:00 UTC
(2 hours ago)
Valid To Jul-24 @ 00:00 UTC
(-1 days ago)
Jul-22 @ 18:00 - Jul-22 @ 21:00
Wind Visibility
40° at 10 knots 6 miles
Clouds
  • Scattered at 2,000' AGL
  • Scattered at 8,000' AGL
  • Broken at 20,000' AGL
Conditions
  • Haze
Becoming Jul-22 @ 21:00 - Jul-23 @ 10:00
Wind Visibility
40° at 10 knots 5 miles
Clouds
  • Broken at 2,000' AGL
  • Overcast at 8,000' AGL
Conditions
  • Light Rain
Probability 40% Probable Jul-22 @ 23:00 - Jul-23 @ 03:00
Clouds
  • Broken at 2,000' AGL
Conditions
  • Thunderstorm
  • Rain
From Jul-23 @ 10:00 - Jul-23 @ 19:00
Wind Visibility
80° at 4 knots Greater than 6 miles
Clouds
  • Scattered at 2,000' AGL
  • Scattered at 9,000' AGL
  • Broken at 22,000' AGL
Becoming Jul-23 @ 19:00 - Jul-24 @ 00:00
Wind Visibility
30° at 12 knots Greater than 6 miles
Clouds
  • Broken at 9,000' AGL